Time;durP1;ratioP1;P1;durP2;ratioP2;P2;SDS_P1;SDS_P2;PMS_P1;PMS_P2;Temp;Humidity;BMP_temperature;BMP_pressure;BME280_temperature;BME280_humidity;BME280_pressure;Samples;Min_cycle;Max_cycle;Signal;HPM_P1;HPM_P2
2023/06/25 00:01:47;;;;;;;24.30;21.97;;;21.30;98.60;;;;;;5059649;28;20747;-69
2023/06/25 00:04:13;;;;;;;24.00;21.53;;;21.30;98.70;;;;;;5056800;28;20408;-69
2023/06/25 00:06:38;;;;;;;24.20;22.00;;;21.10;99.10;;;;;;5056542;28;20587;-69
2023/06/25 00:09:04;;;;;;;22.90;20.80;;;20.90;99.40;;;;;;5056865;28;20662;-69
2023/06/25 00:11:30;;;;;;;22.77;20.47;;;20.90;99.80;;;;;;5056877;28;20685;-69
2023/06/25 00:13:55;;;;;;;24.27;21.97;;;21.00;99.90;;;;;;5056871;28;20249;-69
2023/06/25 00:16:21;;;;;;;22.70;20.70;;;21.10;99.90;;;;;;5056633;28;20178;-69
2023/06/25 00:18:47;;;;;;;20.37;18.37;;;21.10;99.90;;;;;;5053493;28;20539;-69
2023/06/25 00:21:13;;;;;;;17.57;15.97;;;21.00;99.90;;;;;;5056338;28;20197;-69
2023/06/25 00:23:39;;;;;;;16.30;14.70;;;20.90;99.90;;;;;;5056676;28;20397;-69
2023/06/25 00:26:04;;;;;;;16.30;14.70;;;20.80;99.90;;;;;;5056726;28;20403;-69
2023/06/25 00:28:30;;;;;;;17.70;13.80;;;20.80;99.90;;;;;;5056770;28;20236;-69
2023/06/25 00:30:55;;;;;;;13.93;12.53;;;20.80;99.90;;;;;;5056837;28;20201;-69
2023/06/25 00:33:21;;;;;;;13.20;12.00;;;20.60;99.90;;;;;;5056286;28;20249;-69
2023/06/25 00:35:49;;;;;;;11.37;10.27;;;20.50;99.90;;;;;;5056095;28;20171;-69
2023/06/25 00:38:15;;;;;;;10.87;9.87;;;20.40;99.90;;;;;;5056372;28;20250;-69
2023/06/25 00:40:40;;;;;;;10.63;9.60;;;20.40;99.90;;;;;;5056458;28;20861;-69
2023/06/25 00:43:06;;;;;;;11.83;10.80;;;20.40;99.90;;;;;;5056244;28;20216;-69
2023/06/25 00:45:33;;;;;;;9.00;8.10;;;20.50;99.90;;;;;;5057007;28;20525;-69
2023/06/25 00:47:59;;;;;;;9.20;8.40;;;20.50;99.90;;;;;;5056623;28;20659;-69
2023/06/25 00:50:24;;;;;;;8.30;7.50;;;20.50;99.90;;;;;;5068068;28;20444;-69
2023/06/25 00:52:51;;;;;;;8.10;7.40;;;20.40;99.90;;;;;;5076885;28;20229;-69
2023/06/25 00:55:19;;;;;;;8.63;7.90;;;20.30;99.90;;;;;;5077536;28;20192;-69
2023/06/25 00:57:45;;;;;;;7.20;6.60;;;20.40;99.90;;;;;;5076923;28;20460;-69
2023/06/25 01:00:15;;;;;;;8.10;7.30;;;20.40;99.90;;;;;;5076423;28;20734;-69
2023/06/25 01:03:07;;;;;;;7.53;6.83;;;20.30;99.90;;;;;;5076060;28;20193;-69
2023/06/25 01:05:55;;;;;;;6.60;6.00;;;20.40;99.90;;;;;;5075219;28;20385;-69
2023/06/25 01:08:22;;;;;;;6.67;6.07;;;20.30;99.90;;;;;;5075455;28;20440;-69
2023/06/25 01:10:47;;;;;;;6.37;5.43;;;20.30;99.90;;;;;;5057499;28;20898;-69
2023/06/25 01:13:13;;;;;;;7.67;6.87;;;20.30;99.90;;;;;;5075329;28;20393;-69
2023/06/25 01:15:39;;;;;;;7.17;6.43;;;20.30;99.90;;;;;;5075741;28;20166;-69
2023/06/25 01:18:05;;;;;;;5.60;5.10;;;20.30;99.90;;;;;;5075613;28;20186;-69
2023/06/25 01:20:31;;;;;;;5.93;5.43;;;20.30;99.90;;;;;;5075035;28;20412;-69
2023/06/25 01:22:57;;;;;;;5.57;5.07;;;20.30;99.90;;;;;;5075554;28;20427;-69
2023/06/25 01:25:24;;;;;;;5.60;5.10;;;20.20;99.90;;;;;;5057319;28;20215;-68
2023/06/25 01:27:50;;;;;;;6.67;6.07;;;20.20;99.90;;;;;;5075195;28;20428;-69
2023/06/25 01:30:17;;;;;;;5.80;5.30;;;20.10;99.90;;;;;;5075479;28;20404;-69
2023/06/25 01:32:46;;;;;;;6.70;6.00;;;20.10;99.90;;;;;;5057019;28;20416;-69
2023/06/25 01:35:14;;;;;;;5.87;5.37;;;20.00;99.90;;;;;;5074755;28;20409;-69
2023/06/25 01:37:40;;;;;;;5.60;5.10;;;20.10;99.90;;;;;;5074911;28;20430;-69
2023/06/25 01:40:07;;;;;;;6.43;5.83;;;20.10;99.90;;;;;;5074988;28;20411;-69
2023/06/25 01:42:34;;;;;;;6.47;5.87;;;20.00;99.90;;;;;;5074594;28;20277;-68
2023/06/25 01:44:59;;;;;;;6.83;6.23;;;19.90;99.90;;;;;;5061757;28;20770;-69
2023/06/25 01:47:25;;;;;;;6.13;5.60;;;19.90;99.90;;;;;;5034463;28;20456;-69
2023/06/25 01:49:50;;;;;;;6.30;5.70;;;20.00;99.90;;;;;;5051442;28;20174;-69
2023/06/25 01:52:16;;;;;;;5.87;5.37;;;19.90;99.90;;;;;;5074350;28;20169;-69
2023/06/25 01:54:42;;;;;;;6.20;5.70;;;19.80;99.90;;;;;;5065034;28;20197;-69
2023/06/25 01:57:07;;;;;;;5.40;4.73;;;19.80;99.90;;;;;;5054791;28;20229;-69
2023/06/25 01:59:34;;;;;;;5.90;5.40;;;19.80;99.90;;;;;;5054206;28;20240;-69
2023/06/25 02:02:03;;;;;;;8.40;6.17;;;19.60;99.90;;;;;;5054051;28;20190;-69
2023/06/25 02:04:29;;;;;;;5.63;5.07;;;19.60;99.90;;;;;;5054032;28;20397;-68
2023/06/25 02:06:54;;;;;;;6.50;5.90;;;19.60;99.90;;;;;;5053702;28;20432;-68
2023/06/25 02:09:20;;;;;;;6.73;6.13;;;19.60;99.90;;;;;;5054471;28;20626;-68
2023/06/25 02:11:46;;;;;;;5.83;5.23;;;19.50;99.90;;;;;;5054049;28;20166;-69
2023/06/25 02:14:12;;;;;;;6.67;5.97;;;19.50;99.90;;;;;;5053591;28;20413;-68
2023/06/25 02:16:38;;;;;;;5.67;5.17;;;19.50;99.90;;;;;;5054072;28;20675;-68
2023/06/25 02:19:04;;;;;;;5.97;5.47;;;19.50;99.90;;;;;;5055974;28;20223;-69
2023/06/25 02:21:29;;;;;;;5.80;5.30;;;19.40;99.90;;;;;;5073351;28;20323;-68
2023/06/25 02:23:55;;;;;;;6.97;6.13;;;19.40;99.90;;;;;;5073305;28;20412;-68
2023/06/25 02:26:21;;;;;;;12.20;9.10;;;19.30;99.90;;;;;;5064989;28;20169;-68
2023/06/25 02:28:46;;;;;;;8.00;7.23;;;19.30;99.90;;;;;;5053870;28;20170;-68
2023/06/25 02:31:12;;;;;;;5.90;5.40;;;19.20;99.90;;;;;;5054014;28;20178;-68
2023/06/25 02:33:37;;;;;;;5.87;5.37;;;19.20;99.90;;;;;;5035556;28;20189;-68
2023/06/25 02:36:03;;;;;;;6.10;5.60;;;19.20;99.90;;;;;;5053154;28;20193;-68
2023/06/25 02:38:29;;;;;;;6.23;5.73;;;19.20;99.90;;;;;;5053593;28;20190;-69
2023/06/25 02:40:54;;;;;;;6.60;6.00;;;19.30;99.90;;;;;;5053646;28;20600;-68
2023/06/25 02:43:20;;;;;;;6.00;5.50;;;19.30;99.90;;;;;;5053250;28;20224;-68
2023/06/25 02:45:45;;;;;;;6.37;5.87;;;19.30;99.90;;;;;;5053659;28;20536;-68
2023/06/25 02:48:11;;;;;;;6.50;5.90;;;19.30;99.90;;;;;;5053124;28;20623;-68
2023/06/25 02:50:36;;;;;;;6.40;5.80;;;19.30;99.90;;;;;;5064205;28;20178;-68
2023/06/25 02:53:02;;;;;;;6.30;5.70;;;19.30;99.90;;;;;;5073135;28;20239;-68
2023/06/25 02:55:28;;;;;;;6.70;6.10;;;19.40;99.90;;;;;;5073393;28;20248;-68
2023/06/25 02:57:54;;;;;;;5.73;5.23;;;19.30;99.90;;;;;;5073076;28;20668;-68
2023/06/25 03:00:19;;;;;;;6.73;6.13;;;19.30;99.90;;;;;;5073245;28;20176;-68
2023/06/25 03:02:45;;;;;;;6.70;5.90;;;19.30;99.90;;;;;;5072866;28;20202;-68
2023/06/25 03:05:10;;;;;;;5.63;5.13;;;19.30;99.90;;;;;;5072805;28;20520;-68
2023/06/25 03:07:37;;;;;;;7.40;5.43;;;19.20;99.90;;;;;;5072653;28;20190;-68
2023/06/25 03:10:03;;;;;;;6.37;5.77;;;19.00;99.90;;;;;;5073316;28;20178;-68
2023/06/25 03:12:29;;;;;;;5.80;5.20;;;19.00;99.90;;;;;;5073139;28;20778;-68
2023/06/25 03:14:54;;;;;;;6.13;5.53;;;18.90;99.90;;;;;;5072986;28;20404;-69
2023/06/25 03:17:20;;;;;;;6.90;6.30;;;18.80;99.90;;;;;;5072748;28;20197;-68
2023/06/25 03:19:46;;;;;;;5.80;5.30;;;18.80;99.90;;;;;;5072612;28;20213;-68
2023/06/25 03:22:11;;;;;;;6.60;6.00;;;18.80;99.90;;;;;;5072912;28;20224;-69
2023/06/25 03:24:37;;;;;;;6.50;5.90;;;18.90;99.90;;;;;;5073355;28;20243;-68
2023/06/25 03:27:03;;;;;;;6.70;6.00;;;18.90;99.90;;;;;;5073329;28;20688;-68
2023/06/25 03:29:28;;;;;;;6.30;5.80;;;19.00;99.90;;;;;;5073216;28;20170;-68
2023/06/25 03:31:54;;;;;;;5.90;5.40;;;19.00;99.90;;;;;;5073050;28;20515;-68
2023/06/25 03:34:19;;;;;;;6.53;5.93;;;19.00;99.90;;;;;;5072933;28;20170;-69
2023/06/25 03:36:45;;;;;;;6.17;5.67;;;19.10;99.90;;;;;;5072661;28;20201;-68
2023/06/25 03:39:10;;;;;;;6.40;5.80;;;19.00;99.90;;;;;;5073249;28;20257;-68
2023/06/25 03:41:36;;;;;;;6.57;5.97;;;19.00;99.90;;;;;;5073284;28;20375;-68
2023/06/25 03:44:02;;;;;;;6.67;6.10;;;18.90;99.90;;;;;;5056192;28;20538;-68
2023/06/25 03:46:27;;;;;;;6.40;5.90;;;18.90;99.90;;;;;;5073470;28;20586;-69
2023/06/25 03:48:53;;;;;;;6.30;5.80;;;18.90;99.90;;;;;;5073843;28;20181;-68
2023/06/25 03:51:18;;;;;;;8.53;6.50;;;19.00;99.90;;;;;;5072920;28;20200;-68
2023/06/25 03:53:44;;;;;;;7.53;6.17;;;19.00;99.90;;;;;;5042587;28;20694;-68
2023/06/25 03:56:09;;;;;;;5.73;5.23;;;18.90;99.90;;;;;;5033681;28;20241;-68
2023/06/25 03:58:35;;;;;;;6.07;5.57;;;19.00;99.90;;;;;;5015381;28;20538;-68
2023/06/25 04:01:00;;;;;;;7.60;6.33;;;19.00;99.90;;;;;;5032904;28;20543;-68
2023/06/25 04:03:26;;;;;;;5.83;5.33;;;19.00;99.90;;;;;;5033268;28;20164;-68
2023/06/25 04:05:51;;;;;;;6.60;6.10;;;19.00;99.90;;;;;;5045950;28;20304;-68
2023/06/25 04:08:17;;;;;;;5.90;5.40;;;19.00;99.90;;;;;;5053218;28;20187;-68
2023/06/25 04:10:43;;;;;;;6.57;5.97;;;18.90;99.90;;;;;;5054606;28;20179;-68
2023/06/25 04:13:09;;;;;;;7.67;6.23;;;18.90;99.90;;;;;;5056106;28;20170;-68
2023/06/25 04:15:34;;;;;;;6.37;5.83;;;18.90;99.90;;;;;;5055142;28;20248;-68
2023/06/25 04:18:00;;;;;;;7.17;6.20;;;18.90;99.90;;;;;;5051199;28;20437;-68
2023/06/25 04:20:27;;;;;;;5.57;5.03;;;18.90;99.90;;;;;;5054345;28;20193;-68
2023/06/25 04:22:53;;;;;;;6.60;6.00;;;18.90;99.90;;;;;;5053174;28;20190;-68
2023/06/25 04:25:19;;;;;;;7.07;6.47;;;18.80;99.90;;;;;;5034454;28;20464;-68
2023/06/25 04:27:45;;;;;;;6.87;6.27;;;18.80;99.90;;;;;;5052371;28;20936;-68
2023/06/25 04:30:11;;;;;;;6.27;5.77;;;18.90;99.90;;;;;;5052359;28;20167;-68
2023/06/25 04:32:36;;;;;;;7.17;6.43;;;19.00;99.90;;;;;;5052361;28;20202;-68
2023/06/25 04:35:02;;;;;;;7.00;5.90;;;19.10;99.90;;;;;;5052115;28;20920;-68
2023/06/25 04:37:27;;;;;;;6.97;6.43;;;19.20;99.90;;;;;;5052130;28;20191;-68
2023/06/25 04:39:53;;;;;;;7.33;6.63;;;19.10;99.90;;;;;;5052530;28;20687;-68
2023/06/25 04:42:19;;;;;;;6.53;5.93;;;19.20;99.90;;;;;;5052375;28;20191;-68
2023/06/25 04:44:44;;;;;;;6.60;6.00;;;19.20;99.90;;;;;;5052134;28;20166;-68
2023/06/25 04:47:10;;;;;;;6.37;5.87;;;19.20;99.90;;;;;;5051972;28;20199;-68
2023/06/25 04:49:36;;;;;;;6.30;5.80;;;19.30;99.90;;;;;;5058948;28;20174;-68
2023/06/25 04:52:01;;;;;;;6.23;5.00;;;19.30;99.90;;;;;;5075341;28;20173;-68
2023/06/25 04:54:27;;;;;;;6.47;5.87;;;19.30;99.90;;;;;;5075491;28;20174;-68
2023/06/25 04:56:52;;;;;;;7.10;6.50;;;19.30;99.90;;;;;;5075440;28;20562;-68
2023/06/25 04:59:18;;;;;;;6.20;5.60;;;19.30;99.90;;;;;;5075456;28;20228;-68
2023/06/25 05:01:43;;;;;;;6.87;6.17;;;19.40;99.90;;;;;;5057342;28;20261;-68
2023/06/25 05:04:09;;;;;;;6.73;6.13;;;19.50;99.90;;;;;;5076007;28;20174;-68
2023/06/25 05:06:35;;;;;;;5.53;4.90;;;19.70;99.90;;;;;;5074907;28;20162;-68
2023/06/25 05:09:00;;;;;;;7.17;6.57;;;19.80;99.90;;;;;;5075307;28;20181;-68
2023/06/25 05:11:26;;;;;;;6.57;5.97;;;20.00;99.90;;;;;;5075264;28;20184;-68
2023/06/25 05:13:51;;;;;;;6.63;6.03;;;20.00;99.90;;;;;;5075066;28;20208;-68
2023/06/25 05:16:17;;;;;;;6.47;5.97;;;20.00;99.90;;;;;;5075505;28;20177;-68
2023/06/25 05:18:43;;;;;;;7.50;6.40;;;20.20;99.90;;;;;;5074863;28;20190;-68
2023/06/25 05:21:08;;;;;;;6.47;5.90;;;20.40;99.90;;;;;;5074338;28;20285;-68
2023/06/25 05:23:38;;;;;;;5.93;5.43;;;20.50;99.90;;;;;;5074937;28;20444;-68
2023/06/25 05:26:04;;;;;;;6.03;5.53;;;20.70;99.90;;;;;;5075165;28;20253;-69
2023/06/25 05:28:29;;;;;;;6.73;6.17;;;20.80;99.90;;;;;;5074685;28;20490;-68
2023/06/25 05:30:55;;;;;;;6.93;5.40;;;20.90;99.90;;;;;;5075099;28;20640;-69
2023/06/25 05:33:20;;;;;;;6.30;5.70;;;21.00;99.90;;;;;;5074925;28;20177;-68
2023/06/25 05:35:46;;;;;;;6.63;6.00;;;21.00;99.90;;;;;;5074442;28;20178;-68
2023/06/25 05:38:12;;;;;;;6.47;5.87;;;21.00;99.90;;;;;;5074478;28;20190;-68
2023/06/25 05:40:37;;;;;;;7.07;6.47;;;21.00;99.90;;;;;;5074413;28;20644;-68
2023/06/25 05:43:03;;;;;;;6.80;6.20;;;21.00;99.90;;;;;;5074652;28;20166;-68
2023/06/25 05:45:28;;;;;;;7.60;6.90;;;21.10;99.90;;;;;;5074537;28;20177;-68
2023/06/25 05:47:54;;;;;;;7.57;6.87;;;21.40;99.90;;;;;;5074184;28;20205;-68
2023/06/25 05:50:19;;;;;;;6.70;6.20;;;21.50;99.90;;;;;;5074749;28;20239;-68
2023/06/25 05:52:45;;;;;;;6.10;5.60;;;21.70;99.90;;;;;;5074066;28;20197;-69
2023/06/25 05:55:11;;;;;;;6.70;6.03;;;21.90;99.90;;;;;;5067596;28;20186;-69
2023/06/25 05:57:37;;;;;;;6.67;6.17;;;22.00;99.90;;;;;;5017006;28;20203;-68
2023/06/25 06:00:03;;;;;;;7.13;6.43;;;22.10;99.90;;;;;;5033382;28;20776;-68
2023/06/25 06:02:29;;;;;;;6.87;6.27;;;22.10;99.90;;;;;;5034216;28;20198;-68
2023/06/25 06:04:55;;;;;;;6.17;5.60;;;22.30;99.90;;;;;;5039488;28;20421;-68
2023/06/25 06:07:20;;;;;;;9.80;6.60;;;22.40;99.90;;;;;;5054059;28;20598;-69
2023/06/25 06:09:46;;;;;;;6.57;5.97;;;22.50;99.90;;;;;;5054179;28;20178;-68
2023/06/25 06:12:11;;;;;;;8.23;7.53;;;22.60;99.90;;;;;;5052690;28;20181;-69
2023/06/25 06:14:38;;;;;;;7.43;6.73;;;22.60;99.90;;;;;;5052627;28;20240;-68
2023/06/25 06:17:04;;;;;;;6.90;6.27;;;22.60;99.90;;;;;;5054146;28;20278;-68
2023/06/25 06:19:30;;;;;;;7.37;6.70;;;22.70;99.90;;;;;;5054221;28;20413;-69
2023/06/25 06:21:55;;;;;;;7.83;7.13;;;22.70;99.90;;;;;;5053902;28;20499;-68
2023/06/25 06:24:21;;;;;;;6.73;6.13;;;22.70;99.90;;;;;;5054086;28;20183;-68
2023/06/25 06:26:48;;;;;;;7.37;6.67;;;22.70;99.90;;;;;;5053700;28;20194;-68
2023/06/25 06:29:14;;;;;;;7.73;6.90;;;22.30;99.90;;;;;;5053892;28;20167;-68
2023/06/25 06:31:40;;;;;;;7.90;7.00;;;22.10;99.90;;;;;;5035767;28;20413;-68
2023/06/25 06:34:06;;;;;;;10.27;7.13;;;22.50;99.90;;;;;;5054005;28;20413;-68
2023/06/25 06:36:31;;;;;;;7.00;6.40;;;22.50;99.90;;;;;;5053255;28;20245;-69
2023/06/25 06:38:57;;;;;;;6.73;6.23;;;22.60;99.90;;;;;;5053854;28;20218;-68
2023/06/25 06:41:22;;;;;;;7.73;6.43;;;22.50;99.90;;;;;;5053925;28;20244;-68
2023/06/25 06:43:48;;;;;;;6.60;6.00;;;22.60;99.90;;;;;;5053689;28;20171;-69
2023/06/25 06:46:13;;;;;;;7.10;6.40;;;22.70;99.90;;;;;;5053572;28;20621;-68
2023/06/25 06:48:39;;;;;;;6.70;6.10;;;22.90;99.90;;;;;;5053452;28;20256;-69
2023/06/25 06:51:05;;;;;;;6.63;6.03;;;23.10;99.90;;;;;;5051061;28;20178;-69
2023/06/25 06:53:30;;;;;;;5.97;5.43;;;23.10;99.90;;;;;;5073708;28;20204;-69
2023/06/25 06:55:56;;;;;;;7.60;6.77;;;23.30;99.10;;;;;;5073699;28;20261;-68
2023/06/25 06:58:21;;;;;;;6.30;5.77;;;23.40;99.60;;;;;;5073898;28;20194;-68
2023/06/25 07:00:47;;;;;;;7.20;6.47;;;23.30;98.90;;;;;;5073406;28;20220;-68
2023/06/25 07:03:13;;;;;;;6.53;5.93;;;23.40;98.60;;;;;;5073711;28;20170;-67
2023/06/25 07:05:38;;;;;;;6.43;5.83;;;23.50;96.70;;;;;;5072908;28;20292;-68
2023/06/25 07:08:05;;;;;;;7.00;6.40;;;23.50;96.50;;;;;;5073156;28;20193;-68
2023/06/25 07:10:30;;;;;;;6.83;6.30;;;23.70;96.00;;;;;;5073278;28;20154;-68
2023/06/25 07:12:56;;;;;;;6.57;5.90;;;23.60;95.00;;;;;;5073388;28;20412;-68
2023/06/25 07:15:21;;;;;;;9.00;8.00;;;23.60;95.10;;;;;;5073647;28;20249;-68
2023/06/25 07:17:47;;;;;;;7.37;6.70;;;23.60;94.50;;;;;;5072902;28;20717;-69
2023/06/25 07:20:13;;;;;;;7.97;7.17;;;23.60;92.30;;;;;;5072930;28;20616;-68
2023/06/25 07:22:40;;;;;;;7.20;6.50;;;23.70;92.30;;;;;;5066550;28;20729;-69
2023/06/25 07:25:09;;;;;;;7.87;7.07;;;23.90;91.40;;;;;;5043484;28;20210;-69
2023/06/25 07:27:35;;;;;;;7.53;6.70;;;23.90;91.20;;;;;;5042191;28;20422;-69
2023/06/25 07:30:01;;;;;;;6.50;5.90;;;23.90;91.60;;;;;;5043479;28;20481;-69
2023/06/25 07:32:26;;;;;;;6.90;6.30;;;24.10;90.90;;;;;;5046516;28;20182;-69
2023/06/25 07:34:52;;;;;;;7.50;6.20;;;24.30;91.60;;;;;;5053543;28;20413;-69
2023/06/25 07:37:18;;;;;;;6.87;6.23;;;24.50;91.40;;;;;;5034736;28;20236;-69
2023/06/25 07:39:44;;;;;;;7.97;7.17;;;24.60;91.40;;;;;;5053868;28;20409;-69
2023/06/25 07:42:09;;;;;;;7.23;6.50;;;24.80;91.60;;;;;;5053967;28;20187;-69
2023/06/25 07:44:35;;;;;;;7.17;6.57;;;24.90;91.60;;;;;;5052673;28;20162;-69
2023/06/25 07:47:01;;;;;;;7.27;6.67;;;25.00;91.30;;;;;;5052783;28;20388;-69
2023/06/25 07:49:26;;;;;;;8.03;6.90;;;25.10;90.90;;;;;;5054364;28;20168;-69
2023/06/25 07:51:53;;;;;;;8.27;7.47;;;25.10;91.30;;;;;;5072615;28;20224;-69
2023/06/25 07:54:18;;;;;;;7.43;6.70;;;24.80;91.60;;;;;;5072590;28;20166;-69
2023/06/25 07:56:44;;;;;;;9.83;7.73;;;24.70;91.30;;;;;;5072820;28;20489;-69
2023/06/25 07:59:13;;;;;;;7.63;6.93;;;24.80;91.90;;;;;;5072540;28;20178;-69
2023/06/25 08:01:39;;;;;;;8.13;7.43;;;24.80;91.80;;;;;;5044460;28;20282;-69
2023/06/25 08:04:05;;;;;;;8.50;7.57;;;24.80;92.00;;;;;;5032664;28;20497;-69
2023/06/25 08:06:30;;;;;;;8.83;8.03;;;24.80;91.00;;;;;;5031869;28;20407;-69
2023/06/25 08:08:56;;;;;;;7.43;6.73;;;25.00;90.90;;;;;;5034893;28;20678;-69
2023/06/25 08:11:22;;;;;;;8.80;8.00;;;25.10;90.80;;;;;;5032234;28;20171;-69
2023/06/25 08:13:47;;;;;;;8.33;7.60;;;25.10;90.20;;;;;;5042097;28;20250;-69
2023/06/25 08:16:13;;;;;;;7.97;7.27;;;25.20;88.60;;;;;;5052113;28;20171;-69
2023/06/25 08:18:39;;;;;;;8.20;7.40;;;25.30;87.60;;;;;;5051957;28;20186;-69
2023/06/25 08:21:04;;;;;;;8.97;8.17;;;25.30;86.10;;;;;;5051844;28;20282;-69
2023/06/25 08:23:30;;;;;;;8.93;8.13;;;25.40;87.90;;;;;;5054038;28;20165;-69
2023/06/25 08:25:55;;;;;;;9.77;8.10;;;25.40;86.80;;;;;;5056141;28;20170;-69
2023/06/25 08:28:21;;;;;;;8.50;7.63;;;25.50;86.00;;;;;;5055914;28;20186;-69
2023/06/25 08:30:47;;;;;;;8.30;7.50;;;25.60;85.90;;;;;;5056039;28;20253;-69
2023/06/25 08:33:12;;;;;;;8.30;7.50;;;25.70;83.50;;;;;;5055950;28;20180;-69
2023/06/25 08:35:38;;;;;;;9.30;8.40;;;25.70;82.50;;;;;;5055496;28;20173;-69
2023/06/25 08:38:04;;;;;;;8.73;8.00;;;25.80;82.30;;;;;;5055540;28;20221;-69
2023/06/25 08:40:31;;;;;;;7.80;7.00;;;25.80;82.50;;;;;;5056352;28;20199;-69
2023/06/25 08:42:56;;;;;;;7.43;6.73;;;25.80;78.90;;;;;;5055559;28;20221;-69
2023/06/25 08:45:22;;;;;;;8.33;7.60;;;25.90;79.40;;;;;;5055516;28;20895;-69
2023/06/25 08:47:55;;;;;;;9.50;7.70;;;26.00;79.40;;;;;;5055256;28;20241;-69
2023/06/25 08:50:20;;;;;;;8.30;7.43;;;26.10;77.50;;;;;;5053511;28;20179;-69
2023/06/25 08:52:47;;;;;;;8.63;7.90;;;26.00;78.30;;;;;;5035290;28;20406;-69
2023/06/25 08:55:14;;;;;;;8.10;7.40;;;26.20;78.50;;;;;;5035511;28;20214;-69
2023/06/25 08:57:40;;;;;;;8.07;7.27;;;26.20;77.30;;;;;;5017860;28;20426;-69
2023/06/25 09:00:06;;;;;;;8.70;7.90;;;26.30;78.50;;;;;;5035423;28;20945;-69
2023/06/25 09:02:32;;;;;;;10.10;8.10;;;26.40;77.10;;;;;;5035692;28;20218;-69
2023/06/25 09:05:12;;;;;;;8.70;7.57;;;26.50;75.30;;;;;;5035218;28;20426;-69
2023/06/25 09:07:45;;;;;;;7.67;6.97;;;26.50;75.00;;;;;;5035138;28;20456;-69
2023/06/25 09:10:10;;;;;;;8.03;7.23;;;26.60;74.60;;;;;;5035009;28;20416;-69
2023/06/25 09:12:36;;;;;;;7.77;7.03;;;26.80;73.70;;;;;;5035274;28;20413;-69
2023/06/25 09:15:02;;;;;;;7.30;6.60;;;27.00;72.60;;;;;;5035967;28;20309;-69
2023/06/25 09:17:28;;;;;;;8.07;7.17;;;27.20;71.50;;;;;;5054067;28;20437;-69
2023/06/25 09:19:53;;;;;;;7.67;6.87;;;27.20;71.10;;;;;;5060776;28;20170;-70
2023/06/25 09:22:19;;;;;;;7.20;6.50;;;27.20;68.00;;;;;;5074666;28;20186;-69
2023/06/25 09:24:47;;;;;;;6.90;6.30;;;26.90;66.90;;;;;;5074793;28;20195;-69
2023/06/25 09:27:13;;;;;;;7.40;6.60;;;26.80;67.10;;;;;;5074880;28;20236;-69
2023/06/25 09:29:40;;;;;;;8.17;6.73;;;26.90;68.20;;;;;;5074626;28;20827;-69
2023/06/25 09:32:09;;;;;;;6.90;6.30;;;26.80;68.40;;;;;;5074541;28;20245;-69
2023/06/25 09:34:36;;;;;;;6.83;6.17;;;27.00;68.90;;;;;;5074426;28;20400;-70
2023/06/25 09:37:03;;;;;;;7.63;6.93;;;27.30;65.90;;;;;;5074248;28;20423;-69
2023/06/25 09:39:30;;;;;;;7.10;6.50;;;27.20;64.70;;;;;;5074960;28;20908;-69
2023/06/25 09:41:56;;;;;;;7.50;6.80;;;27.30;64.10;;;;;;5074752;28;20436;-70
2023/06/25 09:44:22;;;;;;;7.00;6.30;;;27.40;64.20;;;;;;5074637;28;20798;-69
2023/06/25 09:46:50;;;;;;;7.47;6.77;;;27.40;61.20;;;;;;5074581;28;20514;-69
2023/06/25 09:49:18;;;;;;;6.57;5.97;;;27.30;62.50;;;;;;5074446;28;20392;-69
2023/06/25 09:52:14;;;;;;;8.30;7.50;;;27.40;62.60;;;;;;5074371;28;20408;-69
2023/06/25 09:54:41;;;;;;;7.20;6.53;;;27.50;59.10;;;;;;5056777;28;20404;-70
2023/06/25 09:57:09;;;;;;;6.57;5.67;;;27.50;57.40;;;;;;5074436;28;20511;-69
2023/06/25 09:59:36;;;;;;;7.90;7.17;;;27.80;59.10;;;;;;5065307;28;20417;-69
2023/06/25 10:02:02;;;;;;;9.03;6.43;;;27.90;57.90;;;;;;5055180;28;20445;-69
2023/06/25 10:04:30;;;;;;;7.03;6.43;;;27.90;57.50;;;;;;5042164;28;20463;-69
2023/06/25 10:06:56;;;;;;;6.97;6.30;;;28.10;57.50;;;;;;5034081;28;21016;-69
2023/06/25 10:09:22;;;;;;;7.83;7.10;;;27.80;58.10;;;;;;5034705;28;20416;-69
2023/06/25 10:11:49;;;;;;;7.67;6.87;;;27.90;58.10;;;;;;5034949;28;20909;-69
2023/06/25 10:14:15;;;;;;;7.07;6.30;;;27.90;58.60;;;;;;5016994;28;20180;-69
2023/06/25 10:16:41;;;;;;;7.97;7.17;;;28.00;59.00;;;;;;5034316;28;20779;-70
2023/06/25 10:19:07;;;;;;;7.60;6.90;;;28.10;57.20;;;;;;5034284;28;20199;-70
2023/06/25 10:21:33;;;;;;;8.43;7.63;;;28.10;56.60;;;;;;5073817;28;20218;-69
2023/06/25 10:24:01;;;;;;;8.43;7.57;;;28.10;57.30;;;;;;5064256;28;20497;-69
2023/06/25 10:26:32;;;;;;;8.13;7.33;;;28.30;57.40;;;;;;5054279;28;20163;-69
2023/06/25 10:29:07;;;;;;;8.50;7.80;;;28.30;57.60;;;;;;5054764;28;20848;-69
2023/06/25 10:31:38;;;;;;;7.93;7.23;;;28.40;57.90;;;;;;5053917;28;20401;-70
2023/06/25 10:34:07;;;;;;;8.60;7.80;;;28.50;56.40;;;;;;5054281;28;20408;-69
2023/06/25 10:36:33;;;;;;;7.50;6.80;;;28.40;56.60;;;;;;5053758;28;20849;-69
2023/06/25 10:38:58;;;;;;;7.90;7.20;;;28.60;56.70;;;;;;5053839;28;20412;-70
2023/06/25 10:41:31;;;;;;;7.13;6.53;;;28.70;56.30;;;;;;5053947;28;20187;-69
2023/06/25 10:43:57;;;;;;;8.23;7.50;;;28.80;56.90;;;;;;5054031;28;20174;-69
2023/06/25 10:46:28;;;;;;;7.90;6.80;;;29.00;56.70;;;;;;5053784;28;20761;-70
2023/06/25 10:48:54;;;;;;;7.23;6.63;;;29.10;55.80;;;;;;5055298;28;20413;-69
2023/06/25 10:51:19;;;;;;;7.87;7.17;;;29.00;55.30;;;;;;5070660;28;20424;-69
2023/06/25 10:53:47;;;;;;;8.20;7.50;;;29.20;57.40;;;;;;5074592;28;20178;-70
2023/06/25 10:56:12;;;;;;;8.80;8.00;;;29.50;55.10;;;;;;5075043;28;20166;-69
2023/06/25 10:58:41;;;;;;;8.50;7.70;;;29.60;53.30;;;;;;5073852;28;20419;-70
2023/06/25 11:01:07;;;;;;;7.67;6.97;;;29.20;53.40;;;;;;5073453;28;20192;-69
2023/06/25 11:03:35;;;;;;;9.77;8.87;;;29.20;53.70;;;;;;5073161;28;20484;-70
2023/06/25 11:06:01;;;;;;;8.87;8.07;;;29.30;53.80;;;;;;5054777;28;20199;-70
2023/06/25 11:08:27;;;;;;;8.53;7.67;;;29.10;52.90;;;;;;5072809;28;20507;-70
2023/06/25 11:10:52;;;;;;;8.90;8.10;;;29.20;53.70;;;;;;5061771;28;20237;-70
2023/06/25 11:13:18;;;;;;;8.93;8.13;;;29.10;52.60;;;;;;5053295;28;20224;-69
2023/06/25 11:15:44;;;;;;;9.33;8.50;;;29.30;53.00;;;;;;5053171;28;20195;-70
2023/06/25 11:18:10;;;;;;;8.67;7.87;;;29.30;52.40;;;;;;5053508;28;20194;-70
2023/06/25 11:20:39;;;;;;;8.03;7.33;;;29.50;53.30;;;;;;5061108;28;20412;-70
2023/06/25 11:23:05;;;;;;;8.13;7.43;;;29.70;53.40;;;;;;5073107;28;20789;-70
2023/06/25 11:25:31;;;;;;;8.57;7.77;;;29.90;53.30;;;;;;5073427;28;20407;-70
2023/06/25 11:28:08;;;;;;;8.43;7.73;;;30.00;51.40;;;;;;5072900;28;20186;-70
2023/06/25 11:30:33;;;;;;;9.00;8.20;;;29.80;51.40;;;;;;5072917;28;20415;-70
2023/06/25 11:33:09;;;;;;;8.47;7.67;;;29.80;51.10;;;;;;5072949;28;20451;-70
2023/06/25 11:35:34;;;;;;;8.30;7.57;;;30.40;51.20;;;;;;5072477;28;20170;-70
2023/06/25 11:38:00;;;;;;;8.33;7.27;;;32.80;48.90;;;;;;5072361;28;20557;-70
2023/06/25 11:40:28;;;;;;;8.30;7.50;;;34.00;44.60;;;;;;5073068;28;20165;-70
2023/06/25 11:42:54;;;;;;;8.70;7.90;;;34.50;44.20;;;;;;5072519;28;20201;-70
2023/06/25 11:45:20;;;;;;;8.43;7.70;;;35.70;42.00;;;;;;5072564;28;20408;-70
2023/06/25 11:47:53;;;;;;;7.17;6.57;;;35.60;40.10;;;;;;5072485;28;20469;-70
2023/06/25 11:50:22;;;;;;;7.90;7.20;;;35.30;39.90;;;;;;5101075;22;20956;-70
2023/06/25 11:52:56;;;;;;;8.23;7.53;;;35.50;39.60;;;;;;5092693;28;20448;-70
2023/06/25 11:55:21;;;;;;;9.10;8.30;;;35.30;40.10;;;;;;5093744;28;20407;-69
2023/06/25 11:57:50;;;;;;;8.30;7.60;;;35.80;39.40;;;;;;5093331;28;20745;-70
2023/06/25 12:00:16;;;;;;;7.73;7.13;;;37.00;38.60;;;;;;5113985;28;20666;-70
2023/06/25 12:02:42;;;;;;;8.63;7.83;;;37.00;37.10;;;;;;5116022;28;20450;-70
2023/06/25 12:05:08;;;;;;;8.80;8.10;;;36.50;36.60;;;;;;5117044;28;20751;-70
2023/06/25 12:07:34;;;;;;;9.00;8.20;;;36.20;38.00;;;;;;5117132;28;20165;-70
2023/06/25 12:09:59;;;;;;;8.17;7.47;;;36.20;36.80;;;;;;5117596;28;20995;-71
2023/06/25 12:12:25;;;;;;;9.13;8.37;;;35.70;38.50;;;;;;5115875;28;20248;-70
2023/06/25 12:14:51;;;;;;;8.57;7.83;;;35.40;37.30;;;;;;5096606;28;20184;-70
2023/06/25 12:17:17;;;;;;;8.57;7.77;;;36.20;36.80;;;;;;5096904;28;20198;-71
2023/06/25 12:19:42;;;;;;;8.67;7.87;;;36.20;35.70;;;;;;5094583;28;20525;-70
2023/06/25 12:22:09;;;;;;;8.07;7.27;;;36.40;36.10;;;;;;5075973;28;20190;-71
2023/06/25 12:24:34;;;;;;;8.63;7.80;;;37.20;35.60;;;;;;5094519;28;20174;-71
2023/06/25 12:27:00;;;;;;;8.00;7.20;;;37.00;35.40;;;;;;5096639;28;20403;-71
2023/06/25 12:29:25;;;;;;;8.23;7.53;;;37.80;35.30;;;;;;5096164;28;20204;-71
2023/06/25 12:31:51;;;;;;;7.07;6.57;;;39.10;34.30;;;;;;5096638;28;20659;-70
2023/06/25 12:34:17;;;;;;;7.10;6.50;;;38.40;32.50;;;;;;5096583;28;20256;-70
2023/06/25 12:36:42;;;;;;;7.97;7.27;;;38.00;32.70;;;;;;5096368;28;20246;-71
2023/06/25 12:39:08;;;;;;;7.83;7.20;;;38.20;33.20;;;;;;5095807;28;20272;-71
2023/06/25 12:41:34;;;;;;;8.30;7.60;;;38.90;31.60;;;;;;5096609;28;20228;-72